Time;durP1;ratioP1;P1;durP2;ratioP2;P2;SDS_P1;SDS_P2;PMS_P1;PMS_P2;Temp;Humidity;BMP_temperature;BMP_pressure;BME280_temperature;BME280_humidity;BME280_pressure;Samples;Min_cycle;Max_cycle;Signal;HPM_P1;HPM_P2
2022/10/21 00:01:57;;;;;;;14.53;9.50;;;9.80;91.10;;;9.79;59.79;95818.81;5079515;28;20454;-52
2022/10/21 00:04:24;;;;;;;15.83;8.20;;;9.70;91.40;;;9.75;59.09;95820.00;5086343;28;20497;-53
2022/10/21 00:06:53;;;;;;;13.20;8.50;;;9.70;91.30;;;9.68;59.65;95816.13;5082809;28;20524;-53
2022/10/21 00:09:20;;;;;;;14.50;9.30;;;9.60;91.40;;;9.65;59.08;95821.59;5086253;28;20527;-57
2022/10/21 00:11:47;;;;;;;15.80;9.50;;;9.60;91.30;;;9.61;59.85;95815.72;5085488;28;20446;-56
2022/10/21 00:14:15;;;;;;;12.60;8.30;;;9.50;91.80;;;9.58;59.56;95821.22;5083796;28;20470;-54
2022/10/21 00:16:42;;;;;;;12.73;9.10;;;9.50;92.20;;;9.56;59.98;95823.13;5085485;28;20454;-53
2022/10/21 00:19:09;;;;;;;15.40;10.07;;;9.50;92.10;;;9.54;59.66;95814.47;5082228;28;20466;-57
2022/10/21 00:21:36;;;;;;;13.97;9.40;;;9.50;91.90;;;9.51;59.42;95812.94;5085960;28;20507;-56
2022/10/21 00:24:06;;;;;;;13.30;8.00;;;9.40;92.00;;;9.50;59.84;95815.69;5085805;28;20490;-55
2022/10/21 00:26:33;;;;;;;16.40;9.57;;;9.40;92.00;;;9.48;60.06;95812.28;5085765;28;21018;-54
2022/10/21 00:29:00;;;;;;;13.07;9.30;;;9.40;92.30;;;9.46;59.88;95811.56;5085736;28;20470;-55
2022/10/21 00:31:27;;;;;;;16.33;9.70;;;9.40;92.40;;;9.44;60.11;95818.75;5085872;28;20450;-56
2022/10/21 00:33:54;;;;;;;16.70;10.00;;;9.30;92.40;;;9.42;60.16;95812.72;5082360;28;20483;-57
2022/10/21 00:36:22;;;;;;;22.70;9.80;;;9.30;92.70;;;9.39;60.48;95811.19;5086247;28;20926;-54
2022/10/21 00:38:49;;;;;;;15.10;8.70;;;9.30;92.70;;;9.38;60.48;95811.28;5083166;28;20522;-57
2022/10/21 00:41:19;;;;;;;15.10;9.80;;;9.30;92.60;;;9.35;60.74;95809.72;5085760;28;20503;-54
2022/10/21 00:43:57;;;;;;;17.13;9.97;;;9.30;92.90;;;9.31;60.54;95803.00;5085752;28;20501;-53
2022/10/21 00:46:34;;;;;;;15.17;10.33;;;9.20;92.80;;;9.28;60.48;95808.47;5083068;28;20442;-56
2022/10/21 00:49:02;;;;;;;20.43;11.27;;;9.20;92.90;;;9.24;60.49;95812.28;5079540;28;20561;-56
2022/10/21 00:51:29;;;;;;;20.73;11.30;;;9.20;93.20;;;9.20;60.21;95806.41;5080163;28;20474;-57
2022/10/21 00:53:57;;;;;;;13.10;10.20;;;9.10;92.80;;;9.16;60.02;95802.31;5082982;28;20469;-53
2022/10/21 00:56:28;;;;;;;17.67;10.70;;;9.10;92.60;;;9.10;60.12;95805.38;5083378;28;20819;-57
2022/10/21 00:58:57;;;;;;;19.40;11.20;;;9.10;92.60;;;9.06;59.92;95801.28;5085450;28;20496;-55
2022/10/21 01:01:25;;;;;;;13.40;8.90;;;9.00;92.40;;;9.01;60.15;95803.38;5085564;28;20523;-55
2022/10/21 01:03:52;;;;;;;12.53;9.10;;;9.00;92.60;;;8.96;60.14;95801.91;5085232;28;20998;-58
2022/10/21 01:06:21;;;;;;;14.40;9.60;;;8.90;92.70;;;8.91;59.69;95800.56;5085249;28;20507;-55
2022/10/21 01:08:48;;;;;;;12.00;8.30;;;8.90;92.50;;;8.85;60.24;95795.75;5085518;28;20480;-55
2022/10/21 01:11:17;;;;;;;12.07;8.67;;;8.80;93.20;;;8.78;61.06;95801.41;5085521;28;20454;-56
2022/10/21 01:14:21;;;;;;;13.20;8.87;;;8.70;93.20;;;8.70;60.86;95798.47;5085291;28;20458;-52
2022/10/21 01:16:52;;;;;;;14.00;8.53;;;8.70;92.90;;;8.65;60.42;95802.38;5081587;28;20949;-55
2022/10/21 01:19:57;;;;;;;15.73;10.13;;;8.70;93.10;;;8.59;60.54;95807.06;5084368;28;20534;-54
2022/10/21 01:22:38;;;;;;;14.10;9.57;;;8.60;92.80;;;8.53;60.52;95804.03;5073810;28;20443;-54
2022/10/21 01:25:55;;;;;;;16.50;10.97;;;8.50;93.20;;;8.50;61.41;95801.63;5088381;28;20476;-55
2022/10/21 01:28:28;;;;;;;16.70;8.67;;;8.50;93.20;;;8.47;61.07;95804.44;5049352;28;20849;-54
2022/10/21 01:30:57;;;;;;;13.20;8.33;;;8.40;93.20;;;8.43;60.98;95811.66;5080339;28;20511;-54
2022/10/21 01:33:39;;;;;;;14.63;8.73;;;8.40;93.40;;;8.39;60.93;95808.38;5086071;28;20496;-54
2022/10/21 01:36:23;;;;;;;13.77;8.97;;;8.40;93.30;;;8.37;60.79;95807.66;5083747;28;20468;-54
2022/10/21 01:39:00;;;;;;;15.40;10.03;;;8.30;93.40;;;8.34;61.00;95804.41;5078625;28;20466;-56
2022/10/21 01:41:29;;;;;;;14.13;9.00;;;8.30;93.80;;;8.31;61.01;95809.84;5080383;28;20439;-57
2022/10/21 01:44:02;;;;;;;10.03;8.07;;;8.30;93.60;;;8.25;61.32;95804.06;5083084;28;21100;-54
2022/10/21 01:46:33;;;;;;;13.80;9.10;;;8.20;93.90;;;8.21;61.63;95813.09;5082103;28;20450;-55
2022/10/21 01:49:03;;;;;;;14.33;9.23;;;8.20;94.20;;;8.19;61.32;95817.56;5088710;28;20905;-54
2022/10/21 01:51:30;;;;;;;11.83;9.13;;;8.20;94.20;;;8.19;61.23;95819.38;5085725;28;20531;-56
2022/10/21 01:54:01;;;;;;;13.73;9.23;;;8.20;94.20;;;8.16;62.28;95811.72;5088679;28;20945;-54
2022/10/21 01:56:29;;;;;;;10.93;7.83;;;8.20;94.70;;;8.15;61.49;95823.97;5082334;28;20577;-54
2022/10/21 01:58:56;;;;;;;11.17;8.53;;;8.10;94.40;;;8.14;62.28;95818.84;5089504;28;20522;-55
2022/10/21 02:01:23;;;;;;;8.70;7.67;;;8.10;94.50;;;8.13;61.90;95823.22;5088268;28;20450;-55
2022/10/21 02:03:54;;;;;;;11.77;9.57;;;8.10;94.60;;;8.11;62.56;95812.00;5088709;28;20500;-54
2022/10/21 02:06:21;;;;;;;17.47;8.70;;;8.10;94.70;;;8.09;62.11;95811.28;5088973;28;20506;-54
2022/10/21 02:08:49;;;;;;;11.37;8.20;;;8.00;94.70;;;8.07;61.75;95811.38;5088893;28;20477;-55
2022/10/21 02:11:17;;;;;;;11.03;7.93;;;8.10;94.70;;;8.06;62.21;95809.69;5089123;28;20573;-52
2022/10/21 02:13:48;;;;;;;9.67;7.97;;;8.00;95.00;;;8.06;61.84;95819.34;5084839;28;20531;-56
2022/10/21 02:16:17;;;;;;;10.33;7.90;;;8.00;94.90;;;8.06;62.23;95811.47;5088412;28;20454;-56
2022/10/21 02:18:44;;;;;;;16.27;9.37;;;8.00;95.00;;;8.06;62.19;95820.16;5081397;28;20469;-53
2022/10/21 02:21:17;;;;;;;16.50;9.53;;;8.00;95.00;;;8.05;62.73;95821.09;5088235;28;20453;-56
2022/10/21 02:23:49;;;;;;;18.43;9.80;;;8.00;95.30;;;8.04;62.84;95824.69;5088255;28;20494;-57
2022/10/21 02:26:16;;;;;;;13.47;8.90;;;8.00;95.60;;;8.04;62.56;95821.22;5088324;28;20990;-55
2022/10/21 02:28:43;;;;;;;11.47;8.97;;;8.00;95.70;;;8.01;62.75;95824.03;5088294;28;20930;-55
2022/10/21 02:31:24;;;;;;;14.23;9.93;;;8.00;95.50;;;8.02;63.05;95825.72;5088404;28;20964;-54
2022/10/21 02:33:59;;;;;;;22.57;8.17;;;8.00;95.70;;;8.01;62.26;95834.50;5076857;28;20473;-54
2022/10/21 02:36:33;;;;;;;16.30;9.60;;;8.00;95.40;;;8.00;62.49;95828.44;5088885;28;20946;-56
2022/10/21 02:39:03;;;;;;;10.77;8.83;;;8.00;95.40;;;8.00;62.91;95825.81;5080453;28;20459;-56
2022/10/21 02:41:30;;;;;;;11.10;8.50;;;8.00;95.60;;;8.02;62.36;95834.41;5088044;28;20446;-54
2022/10/21 02:43:59;;;;;;;15.90;9.53;;;8.00;95.50;;;8.02;63.12;95833.56;5087575;28;20582;-54
2022/10/21 02:46:26;;;;;;;13.40;9.67;;;8.00;95.70;;;7.99;62.52;95826.75;5088204;28;20449;-57
2022/10/21 02:48:53;;;;;;;15.70;9.87;;;8.00;95.70;;;7.99;62.94;95836.41;5087357;28;20549;-56
2022/10/21 02:51:20;;;;;;;13.27;9.97;;;8.00;95.70;;;7.98;62.87;95832.09;5083081;28;20458;-54
2022/10/21 02:53:49;;;;;;;14.83;9.87;;;8.00;96.10;;;7.97;62.50;95836.50;5083975;28;22364;-54
2022/10/21 02:56:16;;;;;;;15.93;10.00;;;7.90;95.70;;;7.97;62.85;95835.66;5085754;28;21003;-63
2022/10/21 02:58:44;;;;;;;13.07;9.87;;;8.00;95.90;;;7.94;62.29;95836.69;5087910;28;20462;-53
2022/10/21 03:01:11;;;;;;;14.00;10.33;;;7.90;95.80;;;7.94;63.10;95833.25;5087153;28;20722;-53
2022/10/21 03:03:38;;;;;;;16.23;10.30;;;7.90;95.80;;;7.93;63.25;95827.16;5087298;28;20539;-53
2022/10/21 03:06:06;;;;;;;16.57;10.90;;;7.90;95.80;;;7.90;63.59;95841.31;5087968;28;20457;-54
2022/10/21 03:08:33;;;;;;;15.93;10.40;;;7.90;96.10;;;7.90;62.99;95837.84;5082721;28;20844;-55
2022/10/21 03:11:02;;;;;;;14.50;10.40;;;7.90;96.00;;;7.89;63.52;95839.59;5087303;28;20453;-54
2022/10/21 03:13:29;;;;;;;15.40;9.80;;;7.90;96.20;;;7.88;63.58;95835.34;5086481;28;20518;-55
2022/10/21 03:15:56;;;;;;;17.70;9.50;;;7.90;96.20;;;7.86;62.74;95839.81;5087505;28;20454;-55
2022/10/21 03:18:23;;;;;;;15.70;9.77;;;7.90;96.20;;;7.88;62.97;95848.44;5085873;28;20474;-56
2022/10/21 03:20:51;;;;;;;20.43;10.60;;;7.90;96.20;;;7.89;64.41;95837.00;5080148;28;20618;-57
2022/10/21 03:23:19;;;;;;;10.63;8.60;;;7.90;96.90;;;7.89;64.02;95839.59;5085382;28;20473;-56
2022/10/21 03:25:46;;;;;;;11.50;9.70;;;7.80;96.90;;;7.91;63.96;95844.75;5087333;28;20519;-56
2022/10/21 03:28:15;;;;;;;14.23;9.90;;;7.90;96.70;;;7.85;63.07;95843.38;5086811;28;20533;-53
2022/10/21 03:30:42;;;;;;;21.67;10.80;;;7.90;96.50;;;7.88;63.08;95851.03;5086886;28;20462;-55
2022/10/21 03:33:09;;;;;;;19.20;10.63;;;7.90;96.50;;;7.88;63.48;95847.56;5068170;28;20443;-56
2022/10/21 03:35:36;;;;;;;12.00;9.70;;;7.90;96.60;;;7.86;63.38;95845.03;5075502;28;20439;-53
2022/10/21 03:38:04;;;;;;;24.67;10.40;;;7.80;96.60;;;7.85;63.67;95845.16;5074694;28;20450;-55
2022/10/21 03:40:31;;;;;;;14.00;9.80;;;7.90;96.40;;;7.83;62.78;95849.66;5077950;28;20446;-53
2022/10/21 03:42:58;;;;;;;15.73;10.47;;;7.80;96.20;;;7.82;63.52;95850.59;5086138;28;21020;-53
2022/10/21 03:45:27;;;;;;;17.10;10.60;;;7.80;96.60;;;7.80;63.39;95848.06;5085836;28;20494;-53
2022/10/21 03:47:54;;;;;;;17.97;11.13;;;7.80;96.50;;;7.78;63.17;95846.50;5076787;28;20468;-56
2022/10/21 03:50:21;;;;;;;17.20;10.40;;;7.80;96.60;;;7.77;63.70;95852.66;5073861;28;20453;-56
2022/10/21 03:52:49;;;;;;;16.83;10.30;;;7.80;96.70;;;7.74;63.34;95853.69;5084008;28;20450;-57
2022/10/21 03:55:19;;;;;;;23.47;11.47;;;7.70;96.50;;;7.72;63.26;95848.56;5085990;28;20470;-55
2022/10/21 03:57:46;;;;;;;13.70;10.20;;;7.70;96.60;;;7.72;63.51;95855.56;5084666;28;20466;-56
2022/10/21 04:00:14;;;;;;;29.70;12.77;;;7.70;96.60;;;7.70;63.43;95852.22;5086503;28;20987;-52
2022/10/21 04:02:43;;;;;;;17.63;11.37;;;7.70;96.60;;;7.69;63.82;95858.41;5084923;28;20454;-54
2022/10/21 04:05:11;;;;;;;12.10;9.53;;;7.70;96.80;;;7.65;63.52;95852.53;5085670;28;21421;-56
2022/10/21 04:07:38;;;;;;;16.83;11.30;;;7.70;96.60;;;7.60;63.27;95851.94;5086106;28;21016;-55
2022/10/21 04:10:06;;;;;;;26.00;10.83;;;7.60;96.60;;;7.59;63.36;95857.28;5085984;28;20478;-53
2022/10/21 04:12:33;;;;;;;23.43;11.50;;;7.60;96.60;;;7.53;63.61;95854.13;5085176;28;20457;-56
2022/10/21 04:15:00;;;;;;;18.03;10.60;;;7.60;96.70;;;7.51;63.66;95856.00;5085414;28;20484;-53
2022/10/21 04:17:28;;;;;;;14.37;10.23;;;7.50;96.80;;;7.52;64.10;95852.44;5083298;28;21219;-56
2022/10/21 04:19:56;;;;;;;18.30;10.27;;;7.50;96.80;;;7.51;63.66;95845.53;5081859;28;20482;-56
2022/10/21 04:22:24;;;;;;;19.90;10.00;;;7.50;97.00;;;7.51;63.83;95842.91;5084024;28;20458;-53
2022/10/21 04:24:51;;;;;;;13.10;9.93;;;7.50;97.00;;;7.50;63.63;95849.09;5083943;28;20509;-56
2022/10/21 04:27:18;;;;;;;17.87;10.13;;;7.50;96.90;;;7.49;63.34;95852.63;5082296;28;20985;-55
2022/10/21 04:29:45;;;;;;;16.10;11.07;;;7.50;96.90;;;7.49;64.23;95849.19;5083337;28;20470;-56
2022/10/21 04:32:13;;;;;;;16.63;10.20;;;7.50;97.20;;;7.47;64.51;95843.22;5083027;28;20457;-55
2022/10/21 04:34:40;;;;;;;23.50;10.90;;;7.50;97.30;;;7.45;63.90;95845.94;5080645;28;20470;-54
2022/10/21 04:37:08;;;;;;;32.33;11.03;;;7.50;97.20;;;7.45;63.41;95847.69;5084194;28;20446;-54
2022/10/21 04:39:36;;;;;;;22.73;11.30;;;7.40;97.00;;;7.43;64.25;95847.78;5082482;28;20462;-54
2022/10/21 04:42:03;;;;;;;17.60;11.37;;;7.40;97.00;;;7.44;63.67;95846.84;5078078;28;20803;-56
2022/10/21 04:44:30;;;;;;;22.53;12.13;;;7.40;97.00;;;7.43;63.59;95855.63;5084487;28;20493;-53
2022/10/21 04:46:58;;;;;;;18.57;11.93;;;7.40;96.90;;;7.44;64.26;95854.69;5086162;28;20456;-56
2022/10/21 04:49:25;;;;;;;24.63;11.10;;;7.40;97.20;;;7.45;63.29;95851.16;5085315;28;20513;-56
2022/10/21 04:51:52;;;;;;;28.17;12.10;;;7.40;97.00;;;7.44;63.81;95852.09;5079572;28;20522;-56
2022/10/21 04:54:21;;;;;;;23.70;12.07;;;7.40;97.10;;;7.44;64.10;95853.88;5085776;28;20481;-56
2022/10/21 04:56:48;;;;;;;21.30;11.73;;;7.40;97.00;;;7.43;63.53;95853.00;5083270;28;20771;-53
2022/10/21 04:59:15;;;;;;;17.60;11.00;;;7.40;96.90;;;7.44;64.10;95854.69;5085598;28;20484;-56
2022/10/21 05:01:43;;;;;;;36.07;13.10;;;7.50;97.20;;;7.46;64.14;95859.84;5085626;28;20461;-53
2022/10/21 05:04:10;;;;;;;21.53;11.70;;;7.50;97.40;;;7.46;64.65;95855.44;5084719;28;20493;-54
2022/10/21 05:06:37;;;;;;;30.10;12.43;;;7.50;97.60;;;7.48;64.27;95858.81;5085844;28;21012;-55
2022/10/21 05:09:05;;;;;;;34.73;13.07;;;7.50;97.50;;;7.49;64.65;95852.63;5085367;28;20481;-57
2022/10/21 05:11:33;;;;;;;29.73;12.70;;;7.50;97.40;;;7.51;63.57;95856.00;5084515;28;20481;-53
2022/10/21 05:14:01;;;;;;;70.53;13.27;;;7.50;97.20;;;7.56;64.52;95860.97;5078571;28;20457;-56
2022/10/21 05:16:28;;;;;;;29.23;12.37;;;7.50;97.40;;;7.59;64.08;95862.53;5085341;28;20527;-56
2022/10/21 05:18:55;;;;;;;44.70;12.57;;;7.60;97.40;;;7.62;64.64;95857.09;5084268;28;20466;-57
2022/10/21 05:21:22;;;;;;;35.10;12.57;;;7.60;97.50;;;7.68;64.35;95862.81;5085560;28;20546;-58
2022/10/21 05:23:50;;;;;;;25.57;11.93;;;7.70;97.40;;;7.71;63.81;95865.22;5085206;28;20998;-61
2022/10/21 05:26:17;;;;;;;36.93;14.53;;;7.70;97.80;;;7.78;63.63;95864.84;5074236;28;20508;-56
2022/10/21 05:28:46;;;;;;;25.20;13.60;;;7.80;97.30;;;7.84;64.14;95867.06;5085295;28;21075;-54
2022/10/21 05:31:13;;;;;;;18.73;13.27;;;7.80;97.40;;;7.89;63.83;95863.19;5085517;28;20446;-57
2022/10/21 05:33:40;;;;;;;31.37;13.13;;;7.80;97.40;;;7.96;63.71;95861.00;5084107;28;20474;-53
2022/10/21 05:36:08;;;;;;;32.40;13.73;;;7.90;97.00;;;8.02;63.66;95860.59;5085141;28;21031;-57
2022/10/21 05:38:35;;;;;;;27.20;14.13;;;8.00;97.10;;;8.10;63.53;95862.72;5085432;28;20478;-53
2022/10/21 05:41:02;;;;;;;32.73;12.93;;;8.00;96.90;;;8.17;63.20;95864.00;5080182;28;20457;-57
2022/10/21 05:43:30;;;;;;;46.20;14.07;;;8.10;96.80;;;8.27;63.66;95872.09;5085117;28;20470;-54
2022/10/21 05:45:58;;;;;;;34.93;14.93;;;8.20;97.20;;;8.37;62.79;95864.50;5085196;28;20490;-56
2022/10/21 05:48:26;;;;;;;25.40;13.53;;;8.30;96.90;;;8.49;62.56;95873.34;5085411;28;20507;-58
2022/10/21 05:50:54;;;;;;;26.27;14.33;;;8.40;96.80;;;8.64;63.12;95879.34;5084172;28;20889;-57
2022/10/21 05:53:22;;;;;;;34.10;11.80;;;8.50;96.70;;;8.91;62.26;95880.09;5084926;28;20485;-54
2022/10/21 05:55:59;;;;;;;26.97;12.37;;;8.80;96.70;;;9.38;62.12;95884.81;5081388;28;20450;-53
2022/10/21 05:58:27;;;;;;;39.70;14.40;;;9.10;96.60;;;9.87;61.22;95883.97;5084990;28;20470;-56
2022/10/21 06:00:54;;;;;;;49.23;14.67;;;9.60;96.20;;;10.35;60.06;95894.50;5085380;28;20458;-55
2022/10/21 06:03:23;;;;;;;30.90;16.00;;;10.00;95.00;;;10.86;59.13;95892.50;5084759;28;20564;-53
2022/10/21 06:05:50;;;;;;;33.17;15.73;;;10.50;94.20;;;11.33;58.57;95895.94;5084139;28;20514;-53
2022/10/21 06:08:18;;;;;;;36.20;15.77;;;10.90;93.90;;;11.82;58.60;95901.78;5084932;28;20588;-57
2022/10/21 06:10:45;;;;;;;53.17;17.77;;;11.40;94.20;;;12.30;57.14;95900.59;5088374;28;20955;-57
2022/10/21 06:13:12;;;;;;;29.30;15.53;;;11.90;93.20;;;12.80;56.17;95905.34;5086912;28;20771;-60
2022/10/21 06:15:39;;;;;;;30.27;14.60;;;12.40;92.30;;;13.28;55.51;95905.63;5088730;28;20464;-54
2022/10/21 06:18:07;;;;;;;35.27;14.60;;;12.80;91.50;;;13.75;54.58;95907.81;5085475;28;20446;-56
2022/10/21 06:20:35;;;;;;;33.07;15.13;;;13.30;90.60;;;14.23;53.80;95905.44;5080668;28;20450;-55
2022/10/21 06:23:03;;;;;;;32.17;14.97;;;13.80;90.10;;;14.69;52.64;95907.47;5088607;28;20454;-54
2022/10/21 06:25:30;;;;;;;27.60;14.80;;;14.20;87.80;;;15.14;51.38;95918.44;5088779;28;20490;-56
2022/10/21 06:27:57;;;;;;;24.27;14.30;;;14.70;85.50;;;15.59;50.82;95917.78;5088565;28;20476;-57
2022/10/21 06:30:24;;;;;;;29.77;13.50;;;15.10;84.00;;;16.07;49.97;95916.75;5088731;28;20512;-55
2022/10/21 06:32:52;;;;;;;20.70;13.50;;;15.60;82.20;;;16.54;49.39;95917.56;5084364;28;20967;-56
2022/10/21 06:35:19;;;;;;;32.47;16.13;;;16.00;80.40;;;17.02;48.67;95919.03;5087755;28;20470;-55
2022/10/21 06:37:48;;;;;;;13.17;10.83;;;16.50;79.00;;;17.51;48.09;95926.53;5085733;28;20449;-55
2022/10/21 06:40:15;;;;;;;18.70;10.87;;;16.90;77.30;;;17.99;47.00;95913.69;5086523;28;20485;-56
2022/10/21 06:42:42;;;;;;;23.90;12.63;;;17.40;74.60;;;18.44;46.47;95921.31;5084572;28;20445;-54
2022/10/21 06:45:11;;;;;;;35.70;11.37;;;17.80;74.00;;;18.94;45.99;95916.09;5087599;28;20501;-59
2022/10/21 06:47:38;;;;;;;16.47;12.23;;;18.30;72.20;;;19.40;45.10;95918.25;5087658;28;20503;-55
2022/10/21 06:50:07;;;;;;;27.87;12.30;;;18.80;71.20;;;19.85;44.52;95916.84;5087859;28;20546;-55
2022/10/21 06:52:34;;;;;;;19.67;10.87;;;19.20;69.00;;;20.34;44.08;95916.63;5082794;28;20466;-54
2022/10/21 06:55:02;;;;;;;24.83;12.70;;;19.70;68.10;;;20.81;43.10;95912.19;5085720;28;20465;-56
2022/10/21 06:57:30;;;;;;;21.03;12.10;;;20.20;66.90;;;21.32;42.49;95911.63;5084938;28;20827;-54
2022/10/21 06:59:57;;;;;;;19.63;11.50;;;20.70;64.90;;;21.71;41.16;95917.81;5087655;28;20938;-53
2022/10/21 07:02:24;;;;;;;26.90;12.80;;;21.20;61.80;;;22.09;40.84;95921.25;5087906;28;20454;-54
2022/10/21 07:04:52;;;;;;;20.77;12.70;;;21.60;59.90;;;22.50;39.74;95926.09;5087673;28;20496;-57
2022/10/21 07:07:19;;;;;;;15.27;12.93;;;22.10;58.60;;;22.96;39.66;95913.38;5087957;28;20483;-54
2022/10/21 07:09:46;;;;;;;30.50;13.30;;;22.60;58.80;;;23.42;38.77;95929.09;5087021;28;20473;-54
2022/10/21 07:12:15;;;;;;;30.60;13.73;;;23.10;56.90;;;23.85;37.59;95920.97;5080867;28;20454;-54
2022/10/21 07:14:42;;;;;;;26.63;14.20;;;23.60;55.40;;;24.22;37.01;95921.59;5081754;28;20484;-56
2022/10/21 07:17:10;;;;;;;29.50;15.27;;;24.00;53.90;;;24.59;36.52;95922.19;5080386;28;20985;-56
2022/10/21 07:19:37;;;;;;;21.40;13.83;;;24.40;52.80;;;24.87;35.82;95926.63;5085998;28;20569;-53
2022/10/21 07:22:04;;;;;;;25.17;14.20;;;24.80;52.00;;;25.07;35.18;95929.34;5084127;28;20453;-53
2022/10/21 07:24:31;;;;;;;24.63;14.90;;;25.10;51.20;;;25.27;35.38;95923.97;5082337;28;20470;-56
2022/10/21 07:26:59;;;;;;;24.10;14.07;;;25.30;50.30;;;25.51;35.05;95919.84;5081609;28;20457;-57
2022/10/21 07:29:27;;;;;;;30.43;13.50;;;25.60;49.90;;;25.73;34.05;95917.78;5084406;28;20534;-55
2022/10/21 07:31:55;;;;;;;24.70;16.07;;;25.90;49.00;;;25.91;33.43;95919.00;5082443;28;20515;-56
2022/10/21 07:34:22;;;;;;;33.97;15.93;;;26.10;47.90;;;25.82;32.79;95920.25;5085222;28;20473;-56
2022/10/21 07:36:51;;;;;;;24.90;16.47;;;26.20;47.20;;;25.66;33.10;95910.75;5087315;28;20480;-55
2022/10/21 07:39:20;;;;;;;26.40;16.03;;;26.10;47.10;;;25.68;33.25;95906.78;5081856;28;20475;-61
2022/10/21 07:41:48;;;;;;;37.60;15.90;;;26.00;47.20;;;25.85;33.30;95912.56;5079606;28;20819;-55
2022/10/21 07:44:16;;;;;;;22.83;16.20;;;26.00;47.10;;;26.05;33.32;95903.66;5086752;28;20485;-56
2022/10/21 07:46:44;;;;;;;28.53;15.10;;;26.10;47.30;;;26.20;32.87;95900.72;5086574;28;20997;-56
2022/10/21 07:49:12;;;;;;;32.97;15.30;;;26.10;47.10;;;26.30;32.37;95903.78;5086447;28;21019;-55
2022/10/21 07:51:40;;;;;;;27.00;14.60;;;26.10;45.80;;;26.24;32.60;95910.88;5084607;28;20464;-55
2022/10/21 07:54:07;;;;;;;30.70;14.37;;;26.00;46.20;;;26.24;32.19;95910.88;5083976;28;20469;-55
2022/10/21 07:56:36;;;;;;;23.13;15.90;;;26.00;46.10;;;26.30;32.12;95914.56;5082892;28;20473;-54
2022/10/21 07:59:04;;;;;;;36.70;16.07;;;25.90;45.50;;;26.37;32.22;95901.03;5086685;28;20473;-54
2022/10/21 08:01:32;;;;;;;27.53;14.37;;;26.00;45.90;;;26.49;31.65;95915.50;5086498;28;20480;-55
2022/10/21 08:04:01;;;;;;;32.50;14.20;;;26.10;45.40;;;26.40;31.70;95906.84;5084351;28;20485;-56
2022/10/21 08:06:28;;;;;;;15.30;11.13;;;26.00;45.40;;;26.30;31.31;95911.88;5086353;28;21059;-55
2022/10/21 08:08:57;;;;;;;19.17;12.07;;;25.90;44.60;;;25.91;31.86;95903.63;5086005;28;20813;-56
2022/10/21 08:11:25;;;;;;;21.17;12.43;;;25.60;44.90;;;25.53;32.17;95903.47;5087142;28;20569;-56
2022/10/21 08:13:52;;;;;;;21.87;11.70;;;25.20;45.20;;;25.17;32.86;95891.25;5082926;28;20458;-54
2022/10/21 08:16:19;;;;;;;19.80;12.23;;;24.90;45.60;;;25.06;32.91;95890.00;5086646;28;20518;-54
2022/10/21 08:18:47;;;;;;;18.70;12.10;;;24.70;46.50;;;25.12;33.17;95891.84;5083562;28;20477;-55
2022/10/21 08:21:15;;;;;;;21.50;12.07;;;24.60;46.60;;;25.28;33.29;95890.63;5086142;28;20555;-54
2022/10/21 08:23:43;;;;;;;15.30;10.77;;;24.70;46.70;;;25.42;32.49;95894.16;5086505;28;20508;-55
2022/10/21 08:26:12;;;;;;;16.90;11.07;;;24.80;46.40;;;25.47;32.40;95886.31;5086094;28;20490;-57
2022/10/21 08:28:40;;;;;;;19.13;11.80;;;24.90;46.00;;;25.34;32.41;95887.13;5086093;28;20484;-54
2022/10/21 08:31:08;;;;;;;16.43;11.07;;;24.80;45.90;;;25.29;32.77;95886.94;5085021;28;20450;-54
2022/10/21 08:33:36;;;;;;;32.47;11.93;;;24.60;46.20;;;25.39;32.77;95884.66;5082306;28;20478;-54
2022/10/21 08:36:06;;;;;;;15.53;11.13;;;24.70;46.50;;;25.57;32.46;95885.88;5079496;28;20456;-55
2022/10/21 08:38:34;;;;;;;14.90;10.67;;;24.80;46.10;;;25.43;32.37;95885.06;5085301;28;20474;-55
2022/10/21 08:41:02;;;;;;;14.30;10.97;;;24.90;45.70;;;25.21;32.41;95881.72;5085219;28;20512;-56
2022/10/21 08:43:31;;;;;;;23.47;12.07;;;24.70;46.00;;;24.83;33.26;95885.00;5085686;28;20477;-53
2022/10/21 08:46:03;;;;;;;38.03;13.60;;;24.40;46.10;;;24.40;33.73;95887.94;5085485;28;20523;-57
2022/10/21 08:48:33;;;;;;;82.40;15.30;;;24.10;46.70;;;24.49;33.48;95884.03;5085484;28;20461;-55
2022/10/21 08:51:01;;;;;;;15.93;11.07;;;24.10;47.20;;;24.72;33.54;95885.59;5083670;28;20447;-55
2022/10/21 08:53:31;;;;;;;18.10;11.03;;;24.20;46.80;;;24.70;33.07;95883.91;5082944;28;20474;-56
2022/10/21 08:56:03;;;;;;;21.03;11.47;;;24.20;46.70;;;24.81;33.25;95879.81;5080884;28;20438;-56
2022/10/21 08:58:30;;;;;;;16.57;11.37;;;24.30;47.00;;;25.11;33.41;95870.53;5079718;28;20469;-54
2022/10/21 09:01:02;;;;;;;25.03;15.07;;;24.50;46.60;;;25.36;32.60;95866.22;5085433;28;20457;-58
2022/10/21 09:03:35;;;;;;;16.33;11.50;;;24.70;46.30;;;25.59;32.11;95862.25;5078200;28;20478;-56
2022/10/21 09:06:21;;;;;;;30.50;13.90;;;24.90;46.00;;;25.61;32.46;95853.94;5085280;28;20481;-57
2022/10/21 09:09:07;;;;;;;20.63;12.23;;;24.90;45.70;;;25.56;32.12;95849.19;5081332;28;20492;-56
2022/10/21 09:11:51;;;;;;;19.50;12.03;;;25.00;45.50;;;25.38;32.00;95855.25;5081939;28;20450;-54
2022/10/21 09:14:48;;;;;;;25.40;12.13;;;24.90;45.50;;;25.35;32.16;95847.56;5079494;28;20466;-56
2022/10/21 09:17:24;;;;;;;19.97;12.70;;;24.80;45.90;;;25.48;32.27;95849.41;5080732;28;21065;-56
2022/10/21 09:19:57;;;;;;;18.33;12.53;;;24.90;45.80;;;25.59;31.82;95859.53;5078285;28;20474;-55
2022/10/21 09:22:40;;;;;;;21.50;11.97;;;25.00;45.70;;;25.49;31.74;95840.31;5085504;28;20446;-55
2022/10/21 09:25:20;;;;;;;25.60;12.27;;;24.90;45.60;;;25.52;32.36;95837.19;5084506;28;20584;-57
2022/10/21 09:27:49;;;;;;;16.00;12.43;;;24.90;45.70;;;25.53;32.47;95822.66;5080886;28;21060;-55
2022/10/21 09:30:19;;;;;;;17.43;13.27;;;24.90;45.60;;;25.53;31.93;95826.22;5085304;28;20701;-56
2022/10/21 09:32:48;;;;;;;23.63;12.87;;;24.90;45.40;;;25.58;32.32;95831.78;5083604;28;20508;-56
2022/10/21 09:35:22;;;;;;;17.57;13.00;;;24.90;45.50;;;25.65;32.09;95837.16;5085637;28;20557;-55
2022/10/21 09:37:52;;;;;;;16.10;13.70;;;25.00;45.20;;;25.52;31.67;95840.72;5084840;28;20434;-55
2022/10/21 09:40:22;;;;;;;38.53;12.17;;;24.90;45.10;;;25.40;32.34;95831.59;5080329;28;20462;-55
2022/10/21 09:42:54;;;;;;;16.77;11.47;;;24.90;45.40;;;25.51;32.15;95835.53;5085255;28;20766;-56
2022/10/21 09:45:24;;;;;;;18.13;13.47;;;25.00;45.60;;;25.65;31.92;95834.44;5088492;28;20840;-54
2022/10/21 09:47:56;;;;;;;18.03;12.73;;;25.10;45.40;;;25.85;31.96;95834.41;5084672;28;20442;-54
2022/10/21 09:50:24;;;;;;;18.93;13.47;;;25.20;45.50;;;26.07;31.62;95840.41;5088943;28;20631;-54
2022/10/21 09:52:58;;;;;;;15.90;11.13;;;25.50;44.80;;;26.12;31.10;95834.38;5087882;28;20530;-54
2022/10/21 09:55:25;;;;;;;20.00;11.80;;;25.60;44.40;;;26.06;31.35;95846.00;5085499;28;20925;-55
2022/10/21 09:57:56;;;;;;;17.47;12.00;;;25.50;45.00;;;26.05;31.44;95842.47;5088880;28;20449;-54
2022/10/21 10:00:24;;;;;;;15.77;13.30;;;25.50;44.50;;;26.10;30.80;95834.56;5088988;28;20453;-56
2022/10/21 10:02:52;;;;;;;19.87;12.60;;;25.60;44.30;;;26.10;31.40;95831.88;5087935;28;20801;-54
2022/10/21 10:05:37;;;;;;;23.43;13.13;;;25.60;44.20;;;26.06;31.52;95817.16;5088670;28;20483;-54
2022/10/21 10:08:32;;;;;;;18.70;12.73;;;25.60;44.30;;;25.94;31.34;95818.84;5086261;28;20560;-56
2022/10/21 10:11:13;;;;;;;19.17;13.33;;;25.50;44.50;;;26.02;31.29;95805.13;5081925;28;20438;-54
2022/10/21 10:13:43;;;;;;;18.73;9.50;;;25.50;44.60;;;26.09;31.56;95807.81;5086657;28;20476;-54
2022/10/21 10:16:22;;;;;;;21.37;13.00;;;25.60;44.50;;;26.07;31.01;95802.66;5088305;28;20515;-53
2022/10/21 10:18:50;;;;;;;22.90;13.23;;;25.60;44.20;;;25.91;31.11;95800.38;5080465;28;20564;-55
2022/10/21 10:21:18;;;;;;;16.90;10.33;;;25.50;44.30;;;25.81;31.74;95806.25;5088220;28;20533;-55
2022/10/21 10:23:50;;;;;;;15.87;12.73;;;25.40;44.70;;;25.92;31.76;95812.84;5081565;28;20895;-57
2022/10/21 10:26:29;;;;;;;12.87;11.00;;;25.40;44.60;;;26.01;31.39;95802.66;5088613;28;20485;-56